createdAt,value
2018-09-14T00:00:24.553Z,1.98
2018-09-14T00:00:58.735Z,2.77
2018-09-14T00:01:33.189Z,2.30
2018-09-14T00:02:07.075Z,1.73
2018-09-14T00:02:40.961Z,1.93
2018-09-14T00:03:14.851Z,2.70
2018-09-14T00:03:49.362Z,2.02
2018-09-14T00:04:23.384Z,2.40
2018-09-14T00:04:57.232Z,2.30
2018-09-14T00:05:31.475Z,2.50
2018-09-14T00:06:05.373Z,1.80
2018-09-14T00:06:39.577Z,2.30
2018-09-14T00:07:13.473Z,2.50
2018-09-14T00:07:47.341Z,2.13
2018-09-14T00:08:21.487Z,2.17
2018-09-14T00:08:55.353Z,2.43
2018-09-14T00:09:29.207Z,2.70
2018-09-14T00:10:03.754Z,1.98
2018-09-14T00:10:38.218Z,2.20
2018-09-14T00:11:12.700Z,1.98
2018-09-14T00:11:46.617Z,2.20
2018-09-14T00:12:20.925Z,2.45
2018-09-14T00:12:55.207Z,1.80
2018-09-14T00:13:29.371Z,2.15
2018-09-14T00:14:04.173Z,1.95
2018-09-14T00:14:38.685Z,1.98
2018-09-14T00:15:13.153Z,2.17
2018-09-14T00:15:47.127Z,2.30
2018-09-14T00:16:21.355Z,2.10
2018-09-14T00:16:55.497Z,2.22
2018-09-14T00:17:29.382Z,2.00
2018-09-14T00:18:03.837Z,2.27
2018-09-14T00:18:37.698Z,2.20
2018-09-14T00:19:12.191Z,2.15
2018-09-14T00:19:46.283Z,2.05
2018-09-14T00:20:20.481Z,2.40
2018-09-14T00:20:54.606Z,2.60
2018-09-14T00:21:28.842Z,1.93
2018-09-14T00:22:02.703Z,2.53
2018-09-14T00:22:36.826Z,2.35
2018-09-14T00:23:10.981Z,2.30
2018-09-14T00:23:45.106Z,1.85
2018-09-14T00:24:18.981Z,2.10
2018-09-14T00:24:53.125Z,2.27
2018-09-14T00:25:27.261Z,2.60
2018-09-14T00:26:01.177Z,2.20
2018-09-14T00:26:35.361Z,1.82
2018-09-14T00:27:09.478Z,2.10
2018-09-14T00:27:43.735Z,2.40
2018-09-14T00:28:17.880Z,2.12
2018-09-14T00:28:52.024Z,2.40
2018-09-14T00:29:26.837Z,2.20
2018-09-14T00:30:00.965Z,1.95
2018-09-14T00:30:34.835Z,2.10
2018-09-14T00:31:09.341Z,2.67
2018-09-14T00:31:43.546Z,2.77
2018-09-14T00:32:17.715Z,2.20
2018-09-14T00:32:51.613Z,1.87
2018-09-14T00:33:25.739Z,1.82
2018-09-14T00:33:59.821Z,1.90
2018-09-14T00:34:34.315Z,2.00
2018-09-14T00:35:09.077Z,2.45
2018-09-14T00:35:42.997Z,2.40
2018-09-14T00:36:17.669Z,2.72
2018-09-14T00:36:52.175Z,2.37
2018-09-14T00:37:26.307Z,2.45
2018-09-14T00:38:00.533Z,2.00
2018-09-14T00:38:34.969Z,2.00
2018-09-14T00:39:10.201Z,2.30
2018-09-14T00:39:44.321Z,2.05
2018-09-14T00:40:18.451Z,2.50
2018-09-14T00:40:52.321Z,2.00
2018-09-14T00:41:33.298Z,2.30
2018-09-14T00:42:08.091Z,2.50
2018-09-14T00:42:42.199Z,1.92
2018-09-14T00:43:16.303Z,2.60
2018-09-14T00:43:50.803Z,2.62
2018-09-14T00:44:24.665Z,2.10
2018-09-14T00:44:58.872Z,2.40
2018-09-14T00:45:32.732Z,1.63
2018-09-14T00:46:06.595Z,2.40
2018-09-14T00:46:41.081Z,2.62
2018-09-14T00:47:15.189Z,2.02
2018-09-14T00:47:49.285Z,2.25
2018-09-14T00:48:23.434Z,2.20
2018-09-14T00:48:57.563Z,2.12
2018-09-14T00:49:31.688Z,2.30
2018-09-14T00:50:06.040Z,2.70
2018-09-14T00:50:40.209Z,2.45
2018-09-14T00:51:14.079Z,2.43
2018-09-14T00:51:48.239Z,2.50
2018-09-14T00:52:22.114Z,2.53
2018-09-14T00:52:56.261Z,1.90
2018-09-14T00:53:30.739Z,2.52
2018-09-14T00:54:04.923Z,2.53
2018-09-14T00:54:39.066Z,2.02
2018-09-14T00:55:12.938Z,1.97
2018-09-14T00:55:47.041Z,2.12
2018-09-14T00:56:20.891Z,2.00
2018-09-14T00:56:54.766Z,2.23
2018-09-14T00:57:29.256Z,2.20
2018-09-14T00:58:03.745Z,2.40
2018-09-14T00:58:38.008Z,1.80
2018-09-14T00:59:11.820Z,1.83
2018-09-14T00:59:45.742Z,2.10
2018-09-14T01:00:19.974Z,2.03
2018-09-14T01:00:54.102Z,2.47
2018-09-14T01:01:28.571Z,1.90
2018-09-14T01:02:02.738Z,1.87
2018-09-14T01:02:36.860Z,2.27
2018-09-14T01:03:10.965Z,2.37
2018-09-14T01:03:45.141Z,2.25
2018-09-14T01:04:19.284Z,2.00
2018-09-14T01:05:33.942Z,2.30
2018-09-14T01:06:08.403Z,2.25
2018-09-14T01:06:42.305Z,2.70
2018-09-14T01:07:16.534Z,2.20
2018-09-14T01:07:50.407Z,2.00
2018-09-14T01:08:24.558Z,2.55
2018-09-14T01:08:58.760Z,2.10
2018-09-14T01:09:32.630Z,1.93
2018-09-14T01:10:06.797Z,2.37
2018-09-14T01:10:40.694Z,3.20
2018-09-14T01:11:14.882Z,2.25
2018-09-14T01:11:49.006Z,2.20
2018-09-14T01:12:22.848Z,2.60
2018-09-14T01:12:56.708Z,2.50
2018-09-14T01:13:30.579Z,2.60
2018-09-14T01:14:04.963Z,2.43
2018-09-14T01:14:38.866Z,2.40
2018-09-14T01:15:13.321Z,1.90
2018-09-14T01:15:47.736Z,2.80
2018-09-14T01:16:21.881Z,2.12
2018-09-14T01:16:57.028Z,2.40
2018-09-14T01:17:31.182Z,2.40
2018-09-14T01:18:06.018Z,2.45
2018-09-14T01:18:39.912Z,2.50
2018-09-14T01:19:13.770Z,1.80
2018-09-14T01:19:47.934Z,2.85
2018-09-14T01:21:02.313Z,2.13
2018-09-14T01:21:36.552Z,2.20
2018-09-14T01:22:10.697Z,2.30
2018-09-14T01:22:44.834Z,2.10
2018-09-14T01:23:19.173Z,1.90
2018-09-14T01:23:53.362Z,1.92
2018-09-14T01:24:27.617Z,1.98
2018-09-14T01:25:01.760Z,2.77
2018-09-14T01:25:35.635Z,2.03
2018-09-14T01:26:09.761Z,2.10
2018-09-14T01:26:44.249Z,1.90
2018-09-14T01:27:18.435Z,3.05
2018-09-14T01:27:52.574Z,1.98
2018-09-14T01:28:26.755Z,2.50
2018-09-14T01:29:00.845Z,2.20
2018-09-14T01:29:34.965Z,2.35
2018-09-14T01:30:08.842Z,2.00
2018-09-14T01:30:43.067Z,2.40
2018-09-14T01:31:16.957Z,2.13
2018-09-14T01:31:51.137Z,2.20
2018-09-14T01:32:25.137Z,1.70
2018-09-14T01:32:59.321Z,2.23
2018-09-14T01:33:33.425Z,2.80
2018-09-14T01:34:07.665Z,2.27
2018-09-14T01:34:41.862Z,2.55
2018-09-14T01:35:21.186Z,2.77
2018-09-14T01:36:00.833Z,2.00
2018-09-14T01:36:34.709Z,2.20
2018-09-14T01:37:08.915Z,2.37
2018-09-14T01:37:43.049Z,1.90
2018-09-14T01:38:17.183Z,2.17
2018-09-14T01:38:51.063Z,2.17
2018-09-14T01:39:25.527Z,2.35
2018-09-14T01:39:59.437Z,2.37
2018-09-14T01:40:33.292Z,1.80
2018-09-14T01:41:08.064Z,2.40
2018-09-14T01:41:42.631Z,2.12
2018-09-14T01:42:16.829Z,1.80
2018-09-14T01:42:50.865Z,2.60
2018-09-14T01:43:25.038Z,2.47
2018-09-14T01:43:58.895Z,2.40
2018-09-14T01:44:33.112Z,1.90
2018-09-14T01:45:07.325Z,2.23
2018-09-14T01:45:41.971Z,1.95
2018-09-14T01:46:16.101Z,2.20
2018-09-14T01:46:50.270Z,2.47
2018-09-14T01:47:24.189Z,2.43
2018-09-14T01:47:58.302Z,2.80
2018-09-14T01:48:32.160Z,2.50
2018-09-14T01:49:06.700Z,2.73
2018-09-14T01:49:40.874Z,2.00
2018-09-14T01:50:14.997Z,3.83
2018-09-14T01:50:49.133Z,1.75
2018-09-14T01:51:23.250Z,2.67
2018-09-14T01:51:57.393Z,2.50
2018-09-14T01:52:31.492Z,2.87
2018-09-14T01:53:05.950Z,2.10
2018-09-14T01:53:40.086Z,2.05
2018-09-14T01:54:14.217Z,2.30
2018-09-14T01:54:48.141Z,1.90
2018-09-14T01:55:22.272Z,1.90
2018-09-14T01:55:56.421Z,2.02
2018-09-14T01:56:31.042Z,1.87
2018-09-14T01:57:05.047Z,2.00
2018-09-14T01:57:39.171Z,1.80
2018-09-14T01:58:13.286Z,2.85
2018-09-14T01:58:47.423Z,1.92
2018-09-14T01:59:21.825Z,2.40
2018-09-14T01:59:56.328Z,2.25
2018-09-14T02:00:30.481Z,1.90
2018-09-14T02:01:04.945Z,2.75
2018-09-14T02:01:38.817Z,2.00
2018-09-14T02:02:12.950Z,1.90
2018-09-14T02:02:47.590Z,2.20
2018-09-14T02:03:21.746Z,2.75
2018-09-14T02:03:56.292Z,2.20
2018-09-14T02:04:30.439Z,1.80
2018-09-14T02:05:05.116Z,2.30
2018-09-14T02:05:39.633Z,2.62
2018-09-14T02:06:13.927Z,2.75
2018-09-14T02:06:48.069Z,2.70
2018-09-14T02:07:22.216Z,2.45
2018-09-14T02:07:56.379Z,2.05
2018-09-14T02:08:30.490Z,1.95
2018-09-14T02:09:06.899Z,2.25
2018-09-14T02:09:40.763Z,2.67
2018-09-14T02:10:20.399Z,2.10
2018-09-14T02:10:54.268Z,2.53
2018-09-14T02:11:28.139Z,2.47
2018-09-14T02:12:02.271Z,2.40
2018-09-14T02:12:36.145Z,2.50
2018-09-14T02:13:10.281Z,2.35
2018-09-14T02:13:44.420Z,2.00
2018-09-14T02:14:18.538Z,1.98
2018-09-14T02:14:52.755Z,2.40
2018-09-14T02:15:26.888Z,1.98
2018-09-14T02:16:01.632Z,2.12
2018-09-14T02:16:35.832Z,2.55
2018-09-14T02:17:10.483Z,2.35
2018-09-14T02:17:45.459Z,2.22
2018-09-14T02:18:19.621Z,2.25
2018-09-14T02:18:53.750Z,2.30
2018-09-14T02:19:28.451Z,2.67
2018-09-14T02:20:02.611Z,2.60
2018-09-14T02:20:37.106Z,2.58
2018-09-14T02:21:11.265Z,2.47
2018-09-14T02:21:45.414Z,2.52
2018-09-14T02:22:19.538Z,2.30
2018-09-14T02:22:53.430Z,2.23
2018-09-14T02:23:27.580Z,2.40
2018-09-14T02:24:01.494Z,2.30
2018-09-14T02:24:35.678Z,2.00
2018-09-14T02:25:10.193Z,2.33
2018-09-14T02:25:44.688Z,2.20
2018-09-14T02:26:18.852Z,2.42
2018-09-14T02:26:52.992Z,2.65
2018-09-14T02:27:27.134Z,2.60
2018-09-14T02:28:01.608Z,2.40
2018-09-14T02:28:35.652Z,2.17
2018-09-14T02:29:09.812Z,2.05
2018-09-14T02:29:43.964Z,2.02
2018-09-14T02:30:17.850Z,2.30
2018-09-14T02:30:52.009Z,2.35
2018-09-14T02:31:26.148Z,1.95
2018-09-14T02:32:00.708Z,2.75
2018-09-14T02:32:35.210Z,2.58
2018-09-14T02:33:09.338Z,2.35
2018-09-14T02:33:43.510Z,2.80
2018-09-14T02:34:17.676Z,2.22
2018-09-14T02:34:51.780Z,2.33
2018-09-14T02:35:26.315Z,2.20
2018-09-14T02:36:00.483Z,3.33
2018-09-14T02:36:34.316Z,2.20
2018-09-14T02:37:08.490Z,2.35
2018-09-14T02:37:42.370Z,2.13
2018-09-14T02:38:16.485Z,2.72
2018-09-14T02:38:50.593Z,1.90
2018-09-14T02:39:24.732Z,2.80
2018-09-14T02:39:59.118Z,2.15
2018-09-14T02:40:33.243Z,2.20
2018-09-14T02:41:07.712Z,2.15
2018-09-14T02:41:41.868Z,2.05
2018-09-14T02:42:16.015Z,2.65
2018-09-14T02:42:50.170Z,2.27
2018-09-14T02:43:24.306Z,2.65
2018-09-14T02:43:58.499Z,2.35
2018-09-14T02:44:32.832Z,2.20
2018-09-14T02:45:07.646Z,2.10
2018-09-14T02:45:41.984Z,2.50
2018-09-14T02:46:16.140Z,1.60
2018-09-14T02:46:50.433Z,2.12
2018-09-14T02:47:24.560Z,2.85
2018-09-14T02:47:58.694Z,2.50
2018-09-14T02:48:32.848Z,2.00
2018-09-14T02:49:07.004Z,2.12
2018-09-14T02:49:41.198Z,2.83
2018-09-14T02:50:15.986Z,2.30
2018-09-14T02:50:50.136Z,2.00
2018-09-14T02:51:24.801Z,2.70
2018-09-14T02:51:58.924Z,2.60
2018-09-14T02:52:33.023Z,2.20
2018-09-14T02:53:07.132Z,2.10
2018-09-14T02:53:41.256Z,2.30
2018-09-14T02:54:15.400Z,2.05
2018-09-14T02:54:49.506Z,1.87
2018-09-14T02:55:23.985Z,2.00
2018-09-14T02:56:01.290Z,1.80
2018-09-14T02:56:35.402Z,2.55
2018-09-14T02:57:09.512Z,1.98
2018-09-14T02:57:43.646Z,2.10
2018-09-14T02:58:17.760Z,2.20
2018-09-14T02:58:51.884Z,2.45
2018-09-14T02:59:25.987Z,2.33
2018-09-14T03:00:00.148Z,2.50
2018-09-14T03:00:34.410Z,2.22
2018-09-14T03:01:08.526Z,2.00
2018-09-14T03:01:42.637Z,2.30
2018-09-14T03:02:16.824Z,2.15
2018-09-14T03:02:50.964Z,2.33
2018-09-14T03:03:25.140Z,2.22
2018-09-14T03:03:59.226Z,2.77
2018-09-14T03:04:33.386Z,2.20
2018-09-14T03:05:08.396Z,2.72
2018-09-14T03:05:42.606Z,1.90
2018-09-14T03:06:16.697Z,2.27
2018-09-14T03:06:50.822Z,2.15
2018-09-14T03:07:25.260Z,2.35
2018-09-14T03:07:59.380Z,2.33
2018-09-14T03:09:13.884Z,2.17
2018-09-14T03:09:48.007Z,2.20
2018-09-14T03:10:22.446Z,2.67
2018-09-14T03:10:56.576Z,2.60
2018-09-14T03:11:30.882Z,2.40
2018-09-14T03:12:04.988Z,2.15
2018-09-14T03:12:39.128Z,2.27
2018-09-14T03:13:13.214Z,2.80
2018-09-14T03:13:47.316Z,2.20
2018-09-14T03:14:21.211Z,2.50
2018-09-14T03:14:55.156Z,1.73
2018-09-14T03:15:29.030Z,2.83
2018-09-14T03:16:03.487Z,2.65
2018-09-14T03:16:37.950Z,2.33
2018-09-14T03:17:12.108Z,2.22
2018-09-14T03:17:46.228Z,2.20
2018-09-14T03:18:20.122Z,2.13
2018-09-14T03:18:54.616Z,2.60
2018-09-14T03:19:28.800Z,2.10
2018-09-14T03:20:02.737Z,2.37
2018-09-14T03:20:36.912Z,2.22
2018-09-14T03:21:11.048Z,2.25
2018-09-14T03:21:45.180Z,2.40
2018-09-14T03:22:19.322Z,2.02
2018-09-14T03:22:53.454Z,2.10
2018-09-14T03:23:27.609Z,2.10
2018-09-14T03:24:01.796Z,2.08
2018-09-14T03:24:35.917Z,2.62
2018-09-14T03:25:10.047Z,2.65
2018-09-14T03:25:44.184Z,2.20
2018-09-14T03:26:18.279Z,2.27
2018-09-14T03:26:52.431Z,2.62
2018-09-14T03:27:26.531Z,2.27
2018-09-14T03:28:00.683Z,2.30
2018-09-14T03:28:34.830Z,2.20
2018-09-14T03:29:09.336Z,2.20
2018-09-14T03:29:43.507Z,1.82
2018-09-14T03:30:17.821Z,2.33
2018-09-14T03:30:52.002Z,2.58
2018-09-14T03:31:26.309Z,1.92
2018-09-14T03:32:00.794Z,2.52
2018-09-14T03:32:35.231Z,2.15
2018-09-14T03:33:09.371Z,2.22
2018-09-14T03:33:43.504Z,1.98
2018-09-14T03:34:17.666Z,2.12
2018-09-14T03:34:51.886Z,2.10
2018-09-14T03:35:26.076Z,2.37
2018-09-14T03:36:00.106Z,2.43
2018-09-14T03:36:34.324Z,2.10
2018-09-14T03:37:09.328Z,2.40
2018-09-14T03:37:43.478Z,2.08
2018-09-14T03:38:17.739Z,2.98
2018-09-14T03:38:51.893Z,2.10
2018-09-14T03:39:26.234Z,2.30
2018-09-14T03:40:00.722Z,2.40
2018-09-14T03:40:34.860Z,2.52
2018-09-14T03:41:09.014Z,2.80
2018-09-14T03:41:43.447Z,2.30
2018-09-14T03:42:17.568Z,2.42
2018-09-14T03:42:51.394Z,3.40
2018-09-14T03:43:25.608Z,2.42
2018-09-14T03:43:59.707Z,2.62
2018-09-14T03:44:33.841Z,2.50
2018-09-14T03:45:07.980Z,2.20
2018-09-14T03:45:42.110Z,2.80
2018-09-14T03:46:16.231Z,2.10
2018-09-14T03:46:50.580Z,2.40
2018-09-14T03:47:24.712Z,2.70
2018-09-14T03:47:58.850Z,2.87
2018-09-14T03:48:32.984Z,2.95
2018-09-14T03:49:07.155Z,2.67
2018-09-14T03:49:41.364Z,2.60
2018-09-14T03:50:15.514Z,2.60
2018-09-14T03:50:50.111Z,2.30
2018-09-14T03:51:24.268Z,2.55
2018-09-14T03:51:58.413Z,2.60
2018-09-14T03:52:32.560Z,2.40
2018-09-14T03:53:07.037Z,3.33
2018-09-14T03:53:41.210Z,2.45
2018-09-14T03:54:15.342Z,2.72
2018-09-14T03:54:49.796Z,3.00
2018-09-14T03:55:24.196Z,2.30
2018-09-14T03:55:58.664Z,2.10
2018-09-14T03:56:32.800Z,3.40
2018-09-14T03:57:07.365Z,3.45
2018-09-14T03:57:41.680Z,2.30
2018-09-14T03:58:15.834Z,3.33
2018-09-14T03:58:49.931Z,3.33
2018-09-14T03:59:24.065Z,3.20
2018-09-14T03:59:58.636Z,2.75
2018-09-14T04:00:32.712Z,2.92
2018-09-14T04:01:07.377Z,3.10
2018-09-14T04:01:41.932Z,2.72
2018-09-14T04:02:16.770Z,3.33
2018-09-14T04:02:50.906Z,3.05
2018-09-14T04:03:24.752Z,3.17
2018-09-14T04:03:58.947Z,2.92
2018-09-14T04:04:33.118Z,2.50
2018-09-14T04:05:07.314Z,2.25
2018-09-14T04:05:41.872Z,2.70
2018-09-14T04:06:15.792Z,2.70
2018-09-14T04:06:49.958Z,3.25
2018-09-14T04:07:23.846Z,2.53
2018-09-14T04:07:58.077Z,2.98
2018-09-14T04:08:32.332Z,2.83
2018-09-14T04:09:08.354Z,2.55
2018-09-14T04:09:42.503Z,2.40
2018-09-14T04:10:16.670Z,2.55
2018-09-14T04:10:51.139Z,2.47
2018-09-14T04:11:26.041Z,2.47
2018-09-14T04:12:00.292Z,3.10
2018-09-14T04:12:34.418Z,2.90
2018-09-14T04:13:08.594Z,3.52
2018-09-14T04:13:42.682Z,2.65
2018-09-14T04:14:16.800Z,2.70
2018-09-14T04:14:50.904Z,2.60
2018-09-14T04:15:25.041Z,2.67
2018-09-14T04:15:59.141Z,3.00
2018-09-14T04:16:33.337Z,2.63
2018-09-14T04:17:07.175Z,3.00
2018-09-14T04:17:41.279Z,3.02
2018-09-14T04:18:15.436Z,2.37
2018-09-14T04:19:08.014Z,2.97
2018-09-14T04:19:42.238Z,2.93
2018-09-14T04:20:16.747Z,3.60
2018-09-14T04:20:50.862Z,2.92
2018-09-14T04:21:24.986Z,3.00
2018-09-14T04:21:59.082Z,2.47
2018-09-14T04:22:33.196Z,3.80
2018-09-14T04:23:07.372Z,2.85
2018-09-14T04:23:41.626Z,3.25
2018-09-14T04:24:16.193Z,2.92
2018-09-14T04:24:50.287Z,2.72
2018-09-14T04:25:24.503Z,3.80
2018-09-14T04:25:58.837Z,3.33
2018-09-14T04:26:32.961Z,3.10
2018-09-14T04:27:07.445Z,3.33
2018-09-14T04:27:41.573Z,2.80
2018-09-14T04:28:15.751Z,2.85
2018-09-14T04:28:49.905Z,3.30
2018-09-14T04:29:23.781Z,2.77
2018-09-14T04:29:57.669Z,2.90
2018-09-14T04:30:31.581Z,3.20
2018-09-14T04:31:05.752Z,3.70
2018-09-14T04:31:39.899Z,2.85
2018-09-14T04:32:14.370Z,2.67
2018-09-14T04:32:48.490Z,3.08
2018-09-14T04:33:22.641Z,3.02
2018-09-14T04:33:57.252Z,2.70
2018-09-14T04:34:31.339Z,3.20
2018-09-14T04:35:05.483Z,3.42
2018-09-14T04:35:39.822Z,2.70
2018-09-14T04:36:13.899Z,3.17
2018-09-14T04:36:48.359Z,3.40
2018-09-14T04:37:22.479Z,3.20
2018-09-14T04:37:57.136Z,3.08
2018-09-14T04:38:31.167Z,3.07
2018-09-14T04:39:08.018Z,3.15
2018-09-14T04:39:42.305Z,2.80
2018-09-14T04:40:16.485Z,2.60
2018-09-14T04:40:50.663Z,2.40
2018-09-14T04:41:24.825Z,3.40
2018-09-14T04:41:59.003Z,3.02
2018-09-14T04:42:33.617Z,3.40
2018-09-14T04:43:07.713Z,3.55
2018-09-14T04:43:41.610Z,3.93
2018-09-14T04:44:15.793Z,3.07
2018-09-14T04:44:49.925Z,3.65
2018-09-14T04:45:24.070Z,4.42
2018-09-14T04:45:58.237Z,4.20
2018-09-14T04:46:32.410Z,3.80
2018-09-14T04:47:06.387Z,3.60
2018-09-14T04:47:40.269Z,3.47
2018-09-14T04:48:14.452Z,4.03
2018-09-14T04:48:48.795Z,4.23
2018-09-14T04:49:23.437Z,5.22
2018-09-14T04:49:57.300Z,3.80
2018-09-14T04:50:31.419Z,4.20
2018-09-14T04:51:06.405Z,4.92
2018-09-14T04:51:40.870Z,3.85
2018-09-14T04:52:15.064Z,5.90
2018-09-14T04:52:49.391Z,4.03
2018-09-14T04:53:23.501Z,4.40
2018-09-14T04:53:57.625Z,3.50
2018-09-14T04:54:31.738Z,4.60
2018-09-14T04:55:06.258Z,3.73
2018-09-14T04:55:40.669Z,4.55
2018-09-14T04:56:21.285Z,4.40
2018-09-14T04:56:55.601Z,4.70
2018-09-14T04:57:29.849Z,4.42
2018-09-14T04:58:03.877Z,3.60
2018-09-14T04:58:38.023Z,4.20
2018-09-14T04:59:11.867Z,3.40
2018-09-14T04:59:46.003Z,4.33
2018-09-14T05:00:20.133Z,3.80
2018-09-14T05:00:54.245Z,3.65
2018-09-14T05:01:28.381Z,4.70
2018-09-14T05:02:02.879Z,4.28
2018-09-14T05:02:37.353Z,4.03
2018-09-14T05:03:11.219Z,3.90
2018-09-14T05:03:45.085Z,4.20
2018-09-14T05:04:21.731Z,3.35
2018-09-14T05:05:01.791Z,3.92
2018-09-14T05:05:36.271Z,3.62
2018-09-14T05:06:10.436Z,4.37
2018-09-14T05:06:44.277Z,4.87
2018-09-14T05:07:18.167Z,4.23
2018-09-14T05:07:52.313Z,4.62
2018-09-14T05:08:26.447Z,4.28
2018-09-14T05:09:00.537Z,3.20
2018-09-14T05:09:34.689Z,4.17
2018-09-14T05:10:08.838Z,3.70
2018-09-14T05:10:42.979Z,4.35
2018-09-14T05:11:17.159Z,3.75
2018-09-14T05:11:51.341Z,4.35
2018-09-14T05:12:25.457Z,3.67
2018-09-14T05:12:59.271Z,4.97
2018-09-14T05:13:33.449Z,3.62
2018-09-14T05:14:07.663Z,3.65
2018-09-14T05:14:41.903Z,3.98
2018-09-14T05:15:15.791Z,3.70
2018-09-14T05:15:49.926Z,5.58
2018-09-14T05:16:24.449Z,3.47
2018-09-14T05:16:58.553Z,3.90
2018-09-14T05:17:32.671Z,3.47
2018-09-14T05:18:07.389Z,3.43
2018-09-14T05:18:41.237Z,3.57
2018-09-14T05:19:15.102Z,2.90
2018-09-14T05:19:49.219Z,3.60
2018-09-14T05:20:23.353Z,2.90
2018-09-14T05:20:57.198Z,3.20
2018-09-14T05:21:31.722Z,3.10
2018-09-14T05:22:05.915Z,3.00
2018-09-14T05:22:40.366Z,3.40
2018-09-14T05:23:14.245Z,3.40
2018-09-14T05:23:48.827Z,3.43
2018-09-14T05:24:22.912Z,3.63
2018-09-14T05:24:57.374Z,3.17
2018-09-14T05:25:31.811Z,3.23
2018-09-14T05:26:06.379Z,3.27
2018-09-14T05:26:40.287Z,3.20
2018-09-14T05:27:14.142Z,3.50
2018-09-14T05:27:48.094Z,3.10
2018-09-14T05:28:21.964Z,3.03
2018-09-14T05:28:55.852Z,3.20
2018-09-14T05:29:29.722Z,2.93
2018-09-14T05:30:03.599Z,3.50
2018-09-14T05:30:37.510Z,3.50
2018-09-14T05:31:11.710Z,3.60
2018-09-14T05:31:45.979Z,4.00
2018-09-14T05:32:19.836Z,2.80
2018-09-14T05:32:54.239Z,3.40
2018-09-14T05:33:28.104Z,3.37
2018-09-14T05:34:02.333Z,3.70
2018-09-14T05:34:36.211Z,3.50
2018-09-14T05:35:10.486Z,4.00
2018-09-14T05:35:44.307Z,2.97
2018-09-14T05:36:18.509Z,2.97
2018-09-14T05:36:52.541Z,3.17
2018-09-14T05:37:26.408Z,3.27
2018-09-14T05:38:00.304Z,3.53
2018-09-14T05:38:34.498Z,3.07
2018-09-14T05:39:09.887Z,3.30
2018-09-14T05:39:43.767Z,3.13
2018-09-14T05:40:17.669Z,3.10
2018-09-14T05:40:51.499Z,3.30
2018-09-14T05:41:25.399Z,3.50
2018-09-14T05:41:59.288Z,3.60
2018-09-14T05:42:33.188Z,3.53
2018-09-14T05:43:07.062Z,3.43
2018-09-14T05:43:40.909Z,3.80
2018-09-14T05:44:14.747Z,3.00
2018-09-14T05:44:48.646Z,3.47
2018-09-14T05:45:22.511Z,3.30
2018-09-14T05:45:56.377Z,3.63
2018-09-14T05:46:30.245Z,2.77
2018-09-14T05:47:04.435Z,2.83
2018-09-14T05:47:38.724Z,3.13
2018-09-14T05:48:55.769Z,2.93
2018-09-14T05:49:29.632Z,3.27
2018-09-14T05:50:03.799Z,3.10
2018-09-14T05:50:37.677Z,2.80
2018-09-14T05:51:11.600Z,3.17
2018-09-14T05:51:45.626Z,2.60
2018-09-14T05:52:20.289Z,3.17
2018-09-14T05:52:54.236Z,3.57
2018-09-14T05:53:28.182Z,3.40
2018-09-14T05:54:02.082Z,2.80
2018-09-14T05:54:36.019Z,3.30
2018-09-14T05:55:10.043Z,3.50
2018-09-14T05:55:44.215Z,4.00
2018-09-14T05:56:18.099Z,4.43
2018-09-14T05:56:51.967Z,3.27
2018-09-14T05:57:26.270Z,2.60
2018-09-14T05:58:00.599Z,3.23
2018-09-14T05:58:34.474Z,3.40
2018-09-14T05:59:08.663Z,3.50
2018-09-14T05:59:42.710Z,3.03
2018-09-14T06:00:16.565Z,3.53
2018-09-14T06:00:50.916Z,2.83
2018-09-14T06:01:24.774Z,3.30
2018-09-14T06:01:58.661Z,3.57
2018-09-14T06:02:32.554Z,3.93
2018-09-14T06:03:06.454Z,4.23
2018-09-14T06:03:40.346Z,3.63
2018-09-14T06:04:14.222Z,3.70
2018-09-14T06:04:48.146Z,3.37
2018-09-14T06:05:22.035Z,3.10
2018-09-14T06:05:55.910Z,2.70
2018-09-14T06:06:29.817Z,3.73
2018-09-14T06:07:03.876Z,3.40
2018-09-14T06:07:37.810Z,3.53
2018-09-14T06:08:11.684Z,3.10
2018-09-14T06:08:45.560Z,4.10
2018-09-14T06:09:19.426Z,3.77
2018-09-14T06:09:53.321Z,3.00
2018-09-14T06:10:27.625Z,3.50
2018-09-14T06:11:01.500Z,3.80
2018-09-14T06:11:35.366Z,4.40
2018-09-14T06:12:09.274Z,2.83
2018-09-14T06:12:43.222Z,3.50
2018-09-14T06:13:17.024Z,3.40
2018-09-14T06:13:50.994Z,3.30
2018-09-14T06:14:24.848Z,3.43
2018-09-14T06:14:59.056Z,3.57
2018-09-14T06:15:32.929Z,3.63
2018-09-14T06:16:07.166Z,3.60
2018-09-14T06:16:41.034Z,3.40
2018-09-14T06:17:14.943Z,3.70
2018-09-14T06:17:48.835Z,3.50
2018-09-14T06:18:22.696Z,3.40
2018-09-14T06:18:56.920Z,3.40
2018-09-14T06:19:30.792Z,3.90
2018-09-14T06:20:05.292Z,3.27
2018-09-14T06:20:39.126Z,3.90
2018-09-14T06:21:13.136Z,3.63
2018-09-14T06:21:47.202Z,3.60
2018-09-14T06:22:21.062Z,3.17
2018-09-14T06:22:55.028Z,3.70
2018-09-14T06:23:29.098Z,3.43
2018-09-14T06:24:03.032Z,3.20
2018-09-14T06:24:36.931Z,3.10
2018-09-14T06:25:10.802Z,3.47
2018-09-14T06:25:44.682Z,3.70
2018-09-14T06:26:18.535Z,3.53
2018-09-14T06:26:52.787Z,4.10
2018-09-14T06:27:26.724Z,4.20
2018-09-14T06:28:00.573Z,3.60
2018-09-14T06:28:34.437Z,3.10
2018-09-14T06:29:08.310Z,3.23
2018-09-14T06:29:42.254Z,3.33
2018-09-14T06:30:16.268Z,3.37
2018-09-14T06:30:50.115Z,3.20
2018-09-14T06:31:24.007Z,4.00
2018-09-14T06:31:57.914Z,2.80
2018-09-14T06:32:32.080Z,3.30
2018-09-14T06:33:06.645Z,3.60
2018-09-14T06:33:40.502Z,3.23
2018-09-14T06:34:14.380Z,3.67
2018-09-14T06:34:48.888Z,3.42
2018-09-14T06:35:23.024Z,4.00
2018-09-14T06:35:56.908Z,3.00
2018-09-14T06:36:30.767Z,3.60
2018-09-14T06:37:04.633Z,3.50
2018-09-14T06:37:38.986Z,4.07
2018-09-14T06:38:12.916Z,3.10
2018-09-14T06:38:46.928Z,4.10
2018-09-14T06:39:21.142Z,3.50
2018-09-14T06:39:55.012Z,3.80
2018-09-14T06:40:28.880Z,4.40
2018-09-14T06:41:02.750Z,3.80
2018-09-14T06:41:36.631Z,3.10
2018-09-14T06:42:10.543Z,3.90
2018-09-14T06:42:44.467Z,3.43
2018-09-14T06:43:18.544Z,3.40
2018-09-14T06:43:52.946Z,3.70
2018-09-14T06:44:26.806Z,3.70
2018-09-14T06:45:00.687Z,3.17
2018-09-14T06:45:34.761Z,3.70
2018-09-14T06:46:09.224Z,4.00
2018-09-14T06:46:43.437Z,3.80
2018-09-14T06:47:17.429Z,4.00
2018-09-14T06:47:51.287Z,3.30
2018-09-14T06:48:25.183Z,2.60
2018-09-14T06:48:59.063Z,3.40
2018-09-14T06:49:32.948Z,3.60
2018-09-14T06:50:06.818Z,3.20
2018-09-14T06:50:40.722Z,3.30
2018-09-14T06:51:14.606Z,3.40
2018-09-14T06:51:48.507Z,4.07
2018-09-14T06:52:22.378Z,3.20
2018-09-14T06:52:56.379Z,2.90
2018-09-14T06:53:30.629Z,3.40
2018-09-14T06:54:04.668Z,4.00
2018-09-14T06:54:38.699Z,3.17
2018-09-14T06:55:12.915Z,3.20
2018-09-14T06:55:46.811Z,3.17
2018-09-14T06:56:20.701Z,3.70
2018-09-14T06:56:54.601Z,2.77
2018-09-14T06:57:28.477Z,3.17
2018-09-14T06:58:02.695Z,3.57
2018-09-14T06:58:36.601Z,2.50
2018-09-14T06:59:10.468Z,3.20
2018-09-14T06:59:44.354Z,3.83
2018-09-14T07:00:18.296Z,2.73
2018-09-14T07:00:52.277Z,3.20
2018-09-14T07:01:26.177Z,3.30
2018-09-14T07:02:00.019Z,3.30
2018-09-14T07:02:33.876Z,3.60
2018-09-14T07:03:07.921Z,3.27
2018-09-14T07:03:41.994Z,3.33
2018-09-14T07:04:15.926Z,3.27
2018-09-14T07:04:50.130Z,3.97
2018-09-14T07:05:24.371Z,3.80
2018-09-14T07:05:58.247Z,3.40
2018-09-14T07:06:32.512Z,3.77
2018-09-14T07:07:06.519Z,3.53
2018-09-14T07:07:40.406Z,3.30
2018-09-14T07:08:14.274Z,3.03
2018-09-14T07:08:48.178Z,3.00
2018-09-14T07:09:22.056Z,3.53
2018-09-14T07:09:55.917Z,4.10
2018-09-14T07:10:29.791Z,3.33
2018-09-14T07:11:03.670Z,3.70
2018-09-14T07:11:37.962Z,4.00
2018-09-14T07:12:12.007Z,3.10
2018-09-14T07:12:45.857Z,3.83
2018-09-14T07:13:19.772Z,4.10
2018-09-14T07:13:54.820Z,3.57
2018-09-14T07:14:28.904Z,3.10
2018-09-14T07:15:02.745Z,3.80
2018-09-14T07:15:36.649Z,3.40
2018-09-14T07:16:10.720Z,3.90
2018-09-14T07:16:44.586Z,3.03
2018-09-14T07:17:18.427Z,3.20
2018-09-14T07:17:52.295Z,3.03
2018-09-14T07:18:26.171Z,3.07
2018-09-14T07:19:00.586Z,3.30
2018-09-14T07:19:34.678Z,3.00
2018-09-14T07:20:08.928Z,3.40
2018-09-14T07:20:42.797Z,2.87
2018-09-14T07:21:16.832Z,3.03
2018-09-14T07:21:50.788Z,3.57
2018-09-14T07:22:24.921Z,3.30
2018-09-14T07:22:58.862Z,3.00
2018-09-14T07:23:32.767Z,3.07
2018-09-14T07:24:06.668Z,3.10
2018-09-14T07:24:40.603Z,3.33
2018-09-14T07:25:14.931Z,2.83
2018-09-14T07:25:48.796Z,3.50
2018-09-14T07:26:23.047Z,3.10
2018-09-14T07:26:56.927Z,3.20
2018-09-14T07:27:31.397Z,3.23
2018-09-14T07:28:05.280Z,3.70
2018-09-14T07:28:39.382Z,3.07
2018-09-14T07:29:13.728Z,2.77
2018-09-14T07:29:47.709Z,4.13
2018-09-14T07:30:21.595Z,3.10
2018-09-14T07:30:55.473Z,3.50
2018-09-14T07:31:29.532Z,3.33
2018-09-14T07:32:03.624Z,2.63
2018-09-14T07:32:37.454Z,3.80
2018-09-14T07:33:11.292Z,3.63
2018-09-14T07:33:45.138Z,4.00
2018-09-14T07:34:19.049Z,3.70
2018-09-14T07:34:52.876Z,2.77
2018-09-14T07:35:26.722Z,3.60
2018-09-14T07:36:00.593Z,2.67
2018-09-14T07:36:34.506Z,3.40
2018-09-14T07:37:08.558Z,3.30
2018-09-14T07:37:42.416Z,3.47
2018-09-14T07:38:16.580Z,3.60